BAW460 EGLL-LEMD
Flight info
| Callsign | BAW460 |
|---|---|
| Flight time | N/A |
| Altitude | 39000 |
| Route | GOGSI N621 SAM M195 IBNID/N0448F330 M195 MARUK N621 LELNA DCT NOVAN DCT DELOG N864 NONTU |
| Aircraft | B772/H-SDE1E3FGHIJ3J5J6M1M2P2RWXYZ/LB1D1 |
Departure
| Time | 2026-05-04 16:23 |
|---|---|
| Airport | London Heathrow Airport (EGLL) |
Arrival
| Time | N/A |
|---|---|
| Airport | Adolfo Suárez Madrid–Barajas Airport (LEMD) |
| Time | Latitude | Longitude | Altitude | Speed | Heading |
|---|---|---|---|---|---|
| 2026-05-04 15:35 | 51.46848 | -0.47497 | 91 ft | 0 kts | 270° |
| 2026-05-04 16:07 | 51.46848 | -0.47475 | 93 ft | 4 kts | 270° |
| 2026-05-04 16:08 | 51.46848 | -0.47431 | 91 ft | 4 kts | 270° |
| 2026-05-04 16:08 | 51.46822 | -0.47352 | 91 ft | 1 kts | 359° |
| 2026-05-04 16:09 | 51.46795 | -0.47352 | 91 ft | 0 kts | 360° |
| 2026-05-04 16:12 | 51.46889 | -0.47352 | 91 ft | 10 kts | 359° |
| 2026-05-04 16:13 | 51.47032 | -0.47354 | 94 ft | 10 kts | 0° |
| 2026-05-04 16:13 | 51.47173 | -0.47356 | 93 ft | 10 kts | 360° |
| 2026-05-04 16:14 | 51.47315 | -0.47356 | 91 ft | 10 kts | 0° |
| 2026-05-04 16:14 | 51.47455 | -0.47357 | 92 ft | 10 kts | 360° |
| 2026-05-04 16:15 | 51.47583 | -0.47200 | 94 ft | 11 kts | 91° |
| 2026-05-04 16:16 | 51.47591 | -0.46762 | 91 ft | 21 kts | 88° |
| 2026-05-04 16:16 | 51.47593 | -0.46064 | 92 ft | 21 kts | 86° |
| 2026-05-04 16:17 | 51.47595 | -0.45598 | 94 ft | 21 kts | 89° |
| 2026-05-04 16:18 | 51.47598 | -0.44899 | 91 ft | 21 kts | 90° |
| 2026-05-04 16:18 | 51.47599 | -0.44667 | 91 ft | 21 kts | 90° |
| 2026-05-04 16:19 | 51.47593 | -0.43969 | 94 ft | 21 kts | 89° |
| 2026-05-04 16:19 | 51.47594 | -0.43650 | 94 ft | 11 kts | 89° |
| 2026-05-04 16:20 | 51.47603 | -0.43568 | 94 ft | 2 kts | 59° |
| 2026-05-04 16:20 | 51.47608 | -0.43558 | 92 ft | 0 kts | 52° |
| 2026-05-04 16:21 | 51.47765 | -0.43485 | 94 ft | 4 kts | 275° |
| 2026-05-04 16:22 | 51.47767 | -0.44511 | 96 ft | 116 kts | 270° |
| 2026-05-04 16:23 | 51.47708 | -0.50275 | 1532 ft | 202 kts | 269° |
| 2026-05-04 16:24 | 51.46651 | -0.60467 | 3473 ft | 256 kts | 255° |
| 2026-05-04 16:25 | 51.45850 | -0.65139 | 4670 ft | 263 kts | 256° |
| 2026-05-04 16:26 | 51.45317 | -0.77060 | 5990 ft | 270 kts | 269° |
| 2026-05-04 16:26 | 51.44227 | -0.85526 | 5993 ft | 273 kts | 219° |
| 2026-05-04 16:27 | 51.40684 | -0.87024 | 6210 ft | 263 kts | 193° |
| 2026-05-04 16:28 | 51.36265 | -0.92423 | 7787 ft | 270 kts | 213° |
| 2026-05-04 16:28 | 51.31502 | -0.97468 | 9846 ft | 278 kts | 214° |
| 2026-05-04 16:29 | 51.24604 | -1.04766 | 11722 ft | 330 kts | 213° |
| 2026-05-04 16:30 | 51.18886 | -1.10634 | 14289 ft | 346 kts | 212° |
| 2026-05-04 16:31 | 51.14778 | -1.14853 | 16138 ft | 352 kts | 212° |
| 2026-05-04 16:31 | 51.08488 | -1.21301 | 18723 ft | 365 kts | 212° |
| 2026-05-04 16:32 | 51.01952 | -1.27953 | 21252 ft | 374 kts | 212° |
| 2026-05-04 16:33 | 50.97527 | -1.32444 | 22902 ft | 380 kts | 212° |
| 2026-05-04 16:33 | 50.93049 | -1.37020 | 24357 ft | 386 kts | 213° |
| 2026-05-04 16:34 | 50.88543 | -1.41735 | 25735 ft | 391 kts | 213° |
| 2026-05-04 16:34 | 50.86260 | -1.44124 | 26379 ft | 394 kts | 212° |
| 2026-05-04 16:35 | 50.79319 | -1.51355 | 28184 ft | 402 kts | 212° |
| 2026-05-04 16:35 | 50.72225 | -1.58705 | 29759 ft | 412 kts | 211° |
| 2026-05-04 16:36 | 50.69818 | -1.61193 | 30185 ft | 416 kts | 211° |
| 2026-05-04 16:36 | 50.64924 | -1.66242 | 30858 ft | 423 kts | 211° |
| 2026-05-04 16:37 | 50.59914 | -1.71399 | 31511 ft | 431 kts | 211° |
| 2026-05-04 16:37 | 50.57397 | -1.73986 | 31822 ft | 434 kts | 211° |
| 2026-05-04 16:37 | 50.52301 | -1.79209 | 32415 ft | 440 kts | 211° |
| 2026-05-04 16:38 | 50.47113 | -1.84481 | 32922 ft | 447 kts | 211° |
| 2026-05-04 16:39 | 50.39208 | -1.92482 | 33731 ft | 453 kts | 212° |
| 2026-05-04 16:39 | 50.33904 | -1.97839 | 34354 ft | 454 kts | 212° |
| 2026-05-04 16:40 | 50.28586 | -2.03173 | 34953 ft | 454 kts | 210° |
| 2026-05-04 16:40 | 50.22789 | -2.06933 | 35489 ft | 454 kts | 194° |
| 2026-05-04 16:41 | 50.16531 | -2.08383 | 36046 ft | 455 kts | 184° |
| 2026-05-04 16:41 | 50.07042 | -2.09522 | 36876 ft | 456 kts | 186° |
| 2026-05-04 16:42 | 49.97574 | -2.11099 | 37644 ft | 457 kts | 192° |
| 2026-05-04 16:43 | 49.91471 | -2.13787 | 38156 ft | 457 kts | 198° |
| 2026-05-04 16:43 | 49.85386 | -2.16688 | 38653 ft | 458 kts | 197° |
| 2026-05-04 16:43 | 49.82333 | -2.18117 | 38857 ft | 458 kts | 197° |
| 2026-05-04 16:44 | 49.70053 | -2.23814 | 38988 ft | 458 kts | 197° |
| 2026-05-04 16:45 | 49.63964 | -2.26630 | 38988 ft | 456 kts | 197° |
| 2026-05-04 16:46 | 49.48775 | -2.33625 | 38989 ft | 456 kts | 197° |
| 2026-05-04 16:47 | 49.36578 | -2.39209 | 38992 ft | 458 kts | 197° |
| 2026-05-04 16:48 | 49.24338 | -2.44784 | 38988 ft | 459 kts | 197° |
| 2026-05-04 16:49 | 49.12086 | -2.50336 | 38984 ft | 459 kts | 197° |
| 2026-05-04 16:50 | 48.99804 | -2.55872 | 38974 ft | 458 kts | 197° |
| 2026-05-04 16:51 | 48.90621 | -2.59993 | 38977 ft | 459 kts | 197° |
| 2026-05-04 16:52 | 48.78406 | -2.65451 | 38986 ft | 459 kts | 197° |
| 2026-05-04 16:53 | 48.70210 | -2.69097 | 38986 ft | 459 kts | 197° |
| 2026-05-04 16:54 | 48.57949 | -2.74528 | 38994 ft | 459 kts | 197° |
| 2026-05-04 16:55 | 48.39583 | -2.82613 | 38990 ft | 457 kts | 197° |
| 2026-05-04 16:56 | 48.24320 | -2.89286 | 38968 ft | 456 kts | 197° |
| 2026-05-04 16:57 | 48.15181 | -2.93262 | 38963 ft | 456 kts | 197° |
| 2026-05-04 16:58 | 48.02976 | -2.98548 | 38960 ft | 456 kts | 197° |
| 2026-05-04 17:00 | 47.84616 | -3.06451 | 38957 ft | 457 kts | 197° |
| 2026-05-04 17:01 | 47.69365 | -3.12973 | 38962 ft | 455 kts | 197° |
| 2026-05-04 17:02 | 47.57165 | -3.18161 | 38959 ft | 456 kts | 197° |
| 2026-05-04 17:03 | 47.48004 | -3.22039 | 38961 ft | 456 kts | 197° |
| 2026-05-04 17:03 | 47.38852 | -3.25901 | 38959 ft | 456 kts | 197° |
| 2026-05-04 17:04 | 47.26634 | -3.31034 | 38957 ft | 456 kts | 197° |
| 2026-05-04 17:05 | 47.14423 | -3.36140 | 38962 ft | 456 kts | 197° |
| 2026-05-04 17:06 | 47.05209 | -3.39976 | 38965 ft | 456 kts | 197° |
| 2026-05-04 17:07 | 46.97081 | -3.43349 | 38967 ft | 456 kts | 197° |
| 2026-05-04 17:07 | 46.89932 | -3.46307 | 38968 ft | 457 kts | 197° |
| 2026-05-04 17:08 | 46.80754 | -3.50092 | 38966 ft | 456 kts | 197° |
| 2026-05-04 17:09 | 46.74653 | -3.52601 | 38962 ft | 456 kts | 197° |
| 2026-05-04 17:09 | 46.68541 | -3.55108 | 38973 ft | 456 kts | 197° |
| 2026-05-04 17:10 | 46.53302 | -3.61335 | 38972 ft | 454 kts | 197° |
| 2026-05-04 17:11 | 46.47211 | -3.63814 | 38976 ft | 454 kts | 197° |
| 2026-05-04 17:12 | 46.38081 | -3.67520 | 38969 ft | 454 kts | 197° |
| 2026-05-04 17:13 | 46.22512 | -3.71374 | 38975 ft | 456 kts | 187° |
| 2026-05-04 17:14 | 46.09839 | -3.73238 | 38977 ft | 456 kts | 187° |
| 2026-05-04 17:15 | 46.00401 | -3.74646 | 38980 ft | 456 kts | 187° |
| 2026-05-04 17:16 | 45.87780 | -3.76517 | 38980 ft | 456 kts | 187° |
| 2026-05-04 17:17 | 45.75102 | -3.78387 | 38979 ft | 456 kts | 188° |
| 2026-05-04 17:18 | 45.62476 | -3.80241 | 38978 ft | 456 kts | 188° |
| 2026-05-04 17:19 | 45.49836 | -3.82089 | 38983 ft | 456 kts | 188° |
| 2026-05-04 17:20 | 45.37188 | -3.83930 | 38982 ft | 457 kts | 188° |
| 2026-05-04 17:20 | 45.27703 | -3.85305 | 38979 ft | 457 kts | 188° |
| 2026-05-04 17:21 | 45.15052 | -3.87131 | 38982 ft | 457 kts | 188° |
| 2026-05-04 17:22 | 45.08724 | -3.88042 | 38983 ft | 456 kts | 188° |
| 2026-05-04 17:23 | 44.97151 | -3.89702 | 38988 ft | 456 kts | 188° |
| 2026-05-04 17:24 | 44.87598 | -3.91070 | 38997 ft | 467 kts | 187° |
| 2026-05-04 17:25 | 44.74477 | -3.92937 | 38993 ft | 475 kts | 187° |
| 2026-05-04 17:26 | 44.61378 | -3.94791 | 38983 ft | 470 kts | 187° |
| 2026-05-04 17:27 | 44.45230 | -3.97069 | 38992 ft | 464 kts | 187° |
| 2026-05-04 17:28 | 44.32339 | -3.98715 | 39002 ft | 467 kts | 182° |
| 2026-05-04 17:29 | 44.12795 | -3.96815 | 39003 ft | 470 kts | 178° |
| 2026-05-04 17:31 | 43.96492 | -3.95225 | 38998 ft | 469 kts | 178° |
| 2026-05-04 17:32 | 43.80226 | -3.93642 | 39013 ft | 468 kts | 179° |
| 2026-05-04 17:33 | 43.67227 | -3.92372 | 39015 ft | 468 kts | 179° |
| 2026-05-04 17:34 | 43.54243 | -3.91101 | 39021 ft | 467 kts | 179° |
| 2026-05-04 17:35 | 43.38046 | -3.91182 | 39029 ft | 461 kts | 189° |
| 2026-05-04 17:36 | 43.31665 | -3.92189 | 39025 ft | 461 kts | 189° |
| 2026-05-04 17:36 | 43.25283 | -3.93145 | 39032 ft | 462 kts | 189° |
| 2026-05-04 17:37 | 43.18886 | -3.94090 | 39016 ft | 463 kts | 189° |
| 2026-05-04 17:37 | 43.12494 | -3.95035 | 39018 ft | 462 kts | 189° |
| 2026-05-04 17:38 | 43.06105 | -3.95979 | 39028 ft | 462 kts | 189° |
| 2026-05-04 17:38 | 42.99702 | -3.96925 | 39022 ft | 462 kts | 189° |
| 2026-05-04 17:39 | 42.90105 | -3.98335 | 39026 ft | 463 kts | 189° |
| 2026-05-04 17:39 | 42.83677 | -3.99275 | 39023 ft | 464 kts | 189° |
| 2026-05-04 17:40 | 42.77246 | -4.00214 | 39020 ft | 465 kts | 189° |
| 2026-05-04 17:40 | 42.70797 | -4.01153 | 39015 ft | 466 kts | 189° |
| 2026-05-04 17:41 | 42.64352 | -4.02091 | 39013 ft | 466 kts | 189° |
| 2026-05-04 17:41 | 42.57899 | -4.03026 | 39007 ft | 466 kts | 189° |
| 2026-05-04 17:42 | 42.51455 | -4.03956 | 39002 ft | 465 kts | 189° |
| 2026-05-04 17:42 | 42.45012 | -4.04880 | 38882 ft | 466 kts | 190° |
| 2026-05-04 17:43 | 42.41759 | -4.05349 | 38130 ft | 473 kts | 190° |
| 2026-05-04 17:43 | 42.38500 | -4.05816 | 37625 ft | 468 kts | 190° |
| 2026-05-04 17:43 | 42.35275 | -4.06274 | 37115 ft | 463 kts | 190° |
| 2026-05-04 17:43 | 42.32057 | -4.06732 | 36639 ft | 458 kts | 190° |
| 2026-05-04 17:44 | 42.28901 | -4.07181 | 36155 ft | 453 kts | 190° |
| 2026-05-04 17:44 | 42.25814 | -4.07622 | 35696 ft | 449 kts | 191° |
| 2026-05-04 17:44 | 42.22687 | -4.08068 | 35199 ft | 445 kts | 191° |
| 2026-05-04 17:44 | 42.19619 | -4.08505 | 34732 ft | 442 kts | 191° |
| 2026-05-04 17:45 | 42.16568 | -4.08940 | 34250 ft | 439 kts | 191° |
| 2026-05-04 17:45 | 42.13535 | -4.09373 | 33644 ft | 437 kts | 191° |
| 2026-05-04 17:45 | 42.10518 | -4.09803 | 33074 ft | 434 kts | 191° |
| 2026-05-04 17:45 | 42.07536 | -4.10227 | 32561 ft | 431 kts | 191° |
| 2026-05-04 17:46 | 42.04561 | -4.10648 | 32066 ft | 426 kts | 191° |
| 2026-05-04 17:46 | 42.01622 | -4.11055 | 31578 ft | 422 kts | 191° |
| 2026-05-04 17:46 | 41.98711 | -4.11407 | 31093 ft | 419 kts | 190° |
| 2026-05-04 17:46 | 41.95818 | -4.11731 | 30605 ft | 415 kts | 190° |
| 2026-05-04 17:47 | 41.92947 | -4.12044 | 30127 ft | 411 kts | 190° |
| 2026-05-04 17:47 | 41.90114 | -4.12356 | 29567 ft | 408 kts | 190° |
| 2026-05-04 17:47 | 41.87305 | -4.12670 | 29019 ft | 404 kts | 190° |
| 2026-05-04 17:47 | 41.84514 | -4.12984 | 28488 ft | 400 kts | 190° |
| 2026-05-04 17:48 | 41.81747 | -4.13297 | 27974 ft | 396 kts | 190° |
| 2026-05-04 17:48 | 41.79010 | -4.13608 | 27462 ft | 393 kts | 190° |
| 2026-05-04 17:48 | 41.76302 | -4.13917 | 26947 ft | 390 kts | 190° |
| 2026-05-04 17:48 | 41.73571 | -4.14228 | 26432 ft | 387 kts | 190° |
| 2026-05-04 17:49 | 41.70896 | -4.14533 | 25940 ft | 385 kts | 190° |
| 2026-05-04 17:49 | 41.68241 | -4.14835 | 25449 ft | 383 kts | 190° |
| 2026-05-04 17:49 | 41.65586 | -4.15137 | 24968 ft | 381 kts | 189° |
| 2026-05-04 17:49 | 41.62950 | -4.15435 | 24485 ft | 379 kts | 189° |
| 2026-05-04 17:50 | 41.60323 | -4.15732 | 24006 ft | 378 kts | 189° |
| 2026-05-04 17:50 | 41.57704 | -4.16029 | 23516 ft | 377 kts | 189° |
| 2026-05-04 17:50 | 41.55131 | -4.16322 | 22973 ft | 375 kts | 189° |
| 2026-05-04 17:50 | 41.52506 | -4.16617 | 22444 ft | 374 kts | 189° |
| 2026-05-04 17:51 | 41.49918 | -4.16908 | 21972 ft | 371 kts | 189° |
| 2026-05-04 17:51 | 41.47350 | -4.17197 | 21498 ft | 369 kts | 189° |
| 2026-05-04 17:51 | 41.44796 | -4.17484 | 21020 ft | 368 kts | 189° |
| 2026-05-04 17:51 | 41.42252 | -4.17771 | 20547 ft | 367 kts | 189° |
| 2026-05-04 17:52 | 41.39715 | -4.18057 | 20074 ft | 366 kts | 189° |
| 2026-05-04 17:52 | 41.38038 | -4.18246 | 19768 ft | 365 kts | 188° |
| 2026-05-04 17:52 | 41.35502 | -4.18532 | 19294 ft | 365 kts | 188° |
| 2026-05-04 17:52 | 41.32976 | -4.18815 | 18832 ft | 365 kts | 188° |
| 2026-05-04 17:53 | 41.30445 | -4.19099 | 18381 ft | 364 kts | 188° |
| 2026-05-04 17:53 | 41.27975 | -4.19036 | 18176 ft | 352 kts | 172° |
| 2026-05-04 17:53 | 41.25703 | -4.17827 | 17905 ft | 354 kts | 153° |
| 2026-05-04 17:53 | 41.23769 | -4.15809 | 17668 ft | 355 kts | 139° |
| 2026-05-04 17:54 | 41.22078 | -4.13457 | 17408 ft | 349 kts | 137° |
| 2026-05-04 17:54 | 41.20441 | -4.11121 | 17031 ft | 345 kts | 137° |
| 2026-05-04 17:54 | 41.18762 | -4.08732 | 16350 ft | 351 kts | 136° |
| 2026-05-04 17:54 | 41.17128 | -4.06417 | 16101 ft | 344 kts | 137° |
| 2026-05-04 17:55 | 41.15493 | -4.04110 | 15896 ft | 335 kts | 137° |
| 2026-05-04 17:55 | 41.13869 | -4.01836 | 15214 ft | 343 kts | 137° |
| 2026-05-04 17:55 | 41.12235 | -3.99560 | 14894 ft | 338 kts | 137° |
| 2026-05-04 17:55 | 41.10636 | -3.97333 | 14721 ft | 329 kts | 137° |
| 2026-05-04 17:56 | 41.09049 | -3.95128 | 14092 ft | 335 kts | 137° |
| 2026-05-04 17:56 | 41.07434 | -3.92890 | 13711 ft | 333 kts | 136° |
| 2026-05-04 17:56 | 41.05857 | -3.90701 | 13524 ft | 324 kts | 136° |
| 2026-05-04 17:56 | 41.04308 | -3.88553 | 13035 ft | 325 kts | 136° |
| 2026-05-04 17:57 | 41.02728 | -3.86369 | 12486 ft | 327 kts | 136° |
| 2026-05-04 17:57 | 41.01186 | -3.84234 | 12409 ft | 314 kts | 136° |
| 2026-05-04 17:57 | 40.99704 | -3.82184 | 12313 ft | 302 kts | 136° |
| 2026-05-04 17:57 | 40.98366 | -3.80158 | 12175 ft | 287 kts | 124° |
| 2026-05-04 17:58 | 40.97751 | -3.77669 | 11869 ft | 285 kts | 95° |
| 2026-05-04 17:58 | 40.97684 | -3.75060 | 11589 ft | 279 kts | 95° |
| 2026-05-04 17:58 | 40.97554 | -3.72496 | 11283 ft | 278 kts | 96° |
| 2026-05-04 17:58 | 40.97412 | -3.69993 | 10999 ft | 276 kts | 96° |
| 2026-05-04 17:59 | 40.97275 | -3.67472 | 10723 ft | 274 kts | 96° |
| 2026-05-04 17:59 | 40.96936 | -3.65013 | 10409 ft | 265 kts | 110° |
| 2026-05-04 17:59 | 40.95689 | -3.60484 | 9905 ft | 262 kts | 118° |
| 2026-05-04 18:00 | 40.94598 | -3.58646 | 9603 ft | 254 kts | 150° |
| 2026-05-04 18:00 | 40.92974 | -3.57796 | 9317 ft | 253 kts | 174° |
| 2026-05-04 18:00 | 40.91213 | -3.57618 | 9016 ft | 254 kts | 182° |
| 2026-05-04 18:00 | 40.89447 | -3.57463 | 8671 ft | 250 kts | 168° |
| 2026-05-04 18:01 | 40.87921 | -3.56457 | 8477 ft | 245 kts | 148° |
| 2026-05-04 18:01 | 40.86506 | -3.55191 | 8377 ft | 239 kts | 150° |
| 2026-05-04 18:01 | 40.85136 | -3.54015 | 8339 ft | 232 kts | 150° |
| 2026-05-04 18:02 | 40.82832 | -3.52055 | 8359 ft | 257 kts | 150° |